Flight Track Log - Related Links

Times and Time Zones

All times are in EDT time to prevent confusion due to time zone crossing. See the N6ZE flight status page for this flight to view local times or setup timezone preferences in your user account.

Time Position Orientation Groundspeed Altitude Reporting Facility
EDT Latitude Longitude Course Direction KTS MPH feet Rate Location/Type
Tue 05:39:43 PM 29.1722 -81.0756 176° South 163 188 800  Level Jacksonville Center
Tue 05:41:02 PM 29.1442 -81.1500 247° West 202 232 4,800 2,915 Climbing Jacksonville Center
Tue 05:42:40 PM 29.0833 -81.2167 224° Southwest 233 268 9,400 2,013 Climbing Orlando TRACON
Tue 05:43:40 PM 29.0167 -81.1667 147° Southeast 299 344 10,100 1,008 Climbing Orlando TRACON
Tue 05:44:39 PM 29.0000 -81.0667 101° East 299 344 11,400 2,136 Climbing Orlando TRACON
Tue 05:45:00 PM 29.1772 -81.0579 176° South  Level FlightAware Approximate
Tue 05:45:52 PM 28.9333 -81.0333 156° South 249 287 14,800  Level Orlando TRACON
Tue 05:46:52 PM 28.8500 -81.0667 199° South 277 319 16,100 600 Climbing Orlando TRACON
Tue 05:47:52 PM 28.7667 -81.1000 199° South 334 384 16,000 -56 Descending Orlando TRACON
Tue 05:48:40 PM 28.7000 -81.1167 192° South 341 392 16,000  Level Orlando TRACON
Tue 05:49:52 PM 28.5833 -81.1500 194° South 339 390 16,000  Level Orlando TRACON
Tue 05:50:58 PM 28.5000 -81.1833 199° South 338 389 16,000  Level Orlando TRACON
Tue 05:52:59 PM 28.3106 -81.1981 184° South 336 387 16,000 557 Level Miami Center
Tue 05:54:01 PM 28.2333 -81.2514 211° Southwest 329 379 17,700 2,274 Climbing Miami Center
Tue 05:55:03 PM 28.1639 -81.3022 213° Southwest 278 320 20,700 2,323 Climbing Miami Center
Tue 05:56:05 PM 28.1000 -81.3494 213° Southwest 264 304 22,500 1,122 Climbing Miami Center
Tue 05:57:06 PM 28.0294 -81.3981 211° Southwest 283 326 23,000 244 Climbing Miami Center
Tue 05:58:08 PM 27.9672 -81.4425 212° Southwest 317 365 23,000  Level Miami Center
Tue 05:59:10 PM 27.8700 -81.5086 211° Southwest 337 388 23,000  Level Miami Center
Tue 06:00:12 PM 27.7681 -81.5256 188° South 352 405 23,000  Level Miami Center
Tue 06:01:14 PM 27.6747 -81.5444 190° South 325 374 23,000  Level Miami Center
Tue 06:02:15 PM 27.5964 -81.5611 191° South 277 319 23,000 -390 Level Miami Center
Tue 06:03:17 PM 27.5150 -81.5775 190° South 281 323 22,200 -774 Descending Miami Center
Tue 06:04:19 PM 27.4367 -81.5942 191° South 294 338 21,400 -585 Descending Miami Center
Tue 06:05:20 PM 27.3511 -81.6031 185° South 295 339 21,000 -195 Descending Miami Center
Tue 06:06:22 PM 27.2689 -81.6092 184° South 288 331 21,000  Level Miami Center
Tue 06:07:24 PM 27.1858 -81.6292 192° South 289 333 21,000  Level Miami Center
Tue 06:08:25 PM 27.1014 -81.6489 192° South 314 361 21,000  Level Miami Center
Tue 06:09:27 PM 27.0097 -81.6692 191° South 344 396 21,000  Level Miami Center
Tue 06:10:29 PM 26.9119 -81.6911 191° South 358 412 21,000  Level Miami Center
Tue 06:11:31 PM 26.8114 -81.7106 190° South 363 418 21,000  Level Miami Center
Tue 06:12:32 PM 26.6953 -81.6594 159° South 376 433 21,000 -293 Level Miami Center
Tue 06:13:34 PM 26.6042 -81.6031 151° Southeast 383 441 20,400 -878 Descending Miami Center
Tue 06:14:35 PM 26.5111 -81.5469 152° Southeast 367 422 19,200 -1,512 Descending Miami Center
Tue 06:15:37 PM 26.4250 -81.4897 149° Southeast 338 389 17,300 -1,742 Descending Miami Center
Tue 06:16:39 PM 26.3567 -81.4214 138° Southeast 331 381 15,600 -1,610 Descending Miami Center
Tue 06:17:40 PM 26.2894 -81.3553 139° Southeast 329 379 14,000 -1,516 Descending Miami Center
Tue 06:18:10 PM 26.2650 -81.3306 138° Southeast 324 373 13,300 -1,645 Descending Miami Center
Tue 06:18:42 PM 26.2178 -81.2864 140° Southeast 320 368 12,300 -1,484 Descending Miami Center
Tue 06:19:43 PM 26.1517 -81.2225 139° Southeast 317 365 11,000 -1,073 Descending Miami Center
Tue 06:20:45 PM 26.0817 -81.1547 139° Southeast 315 362 10,100 -484 Descending Miami Center
Tue 06:21:47 PM 26.0186 -81.0933 139° Southeast 306 352 10,000 -96 Descending Miami Center
Tue 06:22:50 PM 25.9533 -81.0186 134° Southeast 299 344 9,900 -488 Descending Miami Center
Tue 06:23:50 PM 25.9019 -80.9597 134° Southeast 296 341 9,000 -942 Descending Miami Center
Tue 06:24:51 PM 25.8478 -80.8981 134° Southeast 281 323 8,000 -1,268 Descending Miami Center
Tue 06:25:53 PM 25.7900 -80.8314 134° Southeast 275 316 6,400 -1,452 Descending Miami Center
Tue 06:26:55 PM 25.7425 -80.7747 133° Southeast 277 319 5,000 -1,388 Descending Miami Center
Tue 06:27:54 PM 25.6908 -80.7147 134° Southeast 211 243 3,600 -1,200 Descending Miami Center
Tue 06:28:55 PM 25.6542 -80.6678 131° Southeast 194 223 2,600 -836 Descending Miami Center
Tue 06:29:56 PM 25.6361 -80.6222 114° Southeast 160 184 1,900 -286 Descending Miami Center
Tue 06:31:01 PM 25.6378 -80.5739 88° East 149 171 2,000 -98 Climbing Miami Center
Tue 06:31:58 PM 25.6394 -80.5394 87° East 134 154 1,700 -488 Descending Miami Center
Tue 06:33:04 PM 25.6414 -80.4953 87° East 128 147 1,000 -639 Descending Miami Center
Tue 06:34:00 PM 25.6425 -80.4611 88° East 125 144 400 -643 Descending Miami Center
Tue 06:36:00 PM 25.6476 -80.4332 90° East  Level Estimated

Login

Don't have an account? Register now (free) for customized features, flight alerts, and more!